sensor_id;sensor_type;location;lat;lon;timestamp;pressure;altitude;pressure_sealevel;temperature;humidity
21817;BME280;13247;47.504;7.382;2023-02-18T00:02:27;98587.34;;;12.14;100.00
21817;BME280;13247;47.504;7.382;2023-02-18T00:05:12;98588.28;;;12.10;100.00
21817;BME280;13247;47.504;7.382;2023-02-18T00:07:57;98589.97;;;12.14;100.00
21817;BME280;13247;47.504;7.382;2023-02-18T00:10:42;98589.06;;;12.15;100.00
21817;BME280;13247;47.504;7.382;2023-02-18T00:13:26;98579.38;;;12.17;100.00
21817;BME280;13247;47.504;7.382;2023-02-18T00:16:12;98580.41;;;12.10;100.00
21817;BME280;13247;47.504;7.382;2023-02-18T00:19:02;98569.03;;;12.06;100.00
21817;BME280;13247;47.504;7.382;2023-02-18T00:21:48;98569.81;;;12.13;100.00
21817;BME280;13247;47.504;7.382;2023-02-18T00:24:32;98573.34;;;12.12;100.00
21817;BME280;13247;47.504;7.382;2023-02-18T00:27:17;98576.88;;;12.11;100.00
21817;BME280;13247;47.504;7.382;2023-02-18T00:30:05;98568.00;;;12.16;100.00
21817;BME280;13247;47.504;7.382;2023-02-18T00:32:50;98572.50;;;12.10;100.00
21817;BME280;13247;47.504;7.382;2023-02-18T00:35:35;98565.47;;;12.10;100.00
21817;BME280;13247;47.504;7.382;2023-02-18T00:38:19;98565.56;;;12.06;100.00
21817;BME280;13247;47.504;7.382;2023-02-18T00:41:04;98568.94;;;12.12;100.00
21817;BME280;13247;47.504;7.382;2023-02-18T00:43:50;98561.88;;;12.16;100.00
21817;BME280;13247;47.504;7.382;2023-02-18T00:46:35;98558.41;;;12.12;100.00
21817;BME280;13247;47.504;7.382;2023-02-18T00:49:20;98564.78;;;12.01;100.00
21817;BME280;13247;47.504;7.382;2023-02-18T00:52:04;98548.91;;;12.05;100.00
21817;BME280;13247;47.504;7.382;2023-02-18T00:54:49;98551.59;;;12.02;100.00
21817;BME280;13247;47.504;7.382;2023-02-18T00:57:33;98552.34;;;12.09;100.00
21817;BME280;13247;47.504;7.382;2023-02-18T01:00:18;98550.69;;;12.05;100.00
21817;BME280;13247;47.504;7.382;2023-02-18T01:03:04;98551.59;;;12.04;100.00
21817;BME280;13247;47.504;7.382;2023-02-18T01:05:51;98549.88;;;12.00;100.00
21817;BME280;13247;47.504;7.382;2023-02-18T01:08:37;98551.66;;;11.99;100.00
21817;BME280;13247;47.504;7.382;2023-02-18T01:11:22;98545.66;;;11.93;100.00
21817;BME280;13247;47.504;7.382;2023-02-18T01:14:06;98546.41;;;11.98;100.00
21817;BME280;13247;47.504;7.382;2023-02-18T01:16:51;98553.44;;;11.97;100.00
21817;BME280;13247;47.504;7.382;2023-02-18T01:19:36;98547.16;;;12.06;100.00
21817;BME280;13247;47.504;7.382;2023-02-18T01:22:21;98536.47;;;12.15;100.00
21817;BME280;13247;47.504;7.382;2023-02-18T01:25:07;98530.44;;;12.10;100.00
21817;BME280;13247;47.504;7.382;2023-02-18T01:27:51;98524.34;;;12.08;100.00
21817;BME280;13247;47.504;7.382;2023-02-18T01:30:36;98531.31;;;12.09;100.00
21817;BME280;13247;47.504;7.382;2023-02-18T01:33:21;98539.28;;;12.06;100.00
21817;BME280;13247;47.504;7.382;2023-02-18T01:36:06;98536.53;;;12.12;100.00
21817;BME280;13247;47.504;7.382;2023-02-18T01:38:51;98528.78;;;12.04;100.00
21817;BME280;13247;47.504;7.382;2023-02-18T01:41:37;98529.41;;;12.17;100.00
21817;BME280;13247;47.504;7.382;2023-02-18T01:44:25;98523.47;;;12.07;100.00
21817;BME280;13247;47.504;7.382;2023-02-18T01:47:10;98510.25;;;12.12;100.00
21817;BME280;13247;47.504;7.382;2023-02-18T01:49:55;98502.44;;;12.07;100.00
21817;BME280;13247;47.504;7.382;2023-02-18T01:52:39;98512.91;;;12.09;100.00
21817;BME280;13247;47.504;7.382;2023-02-18T01:55:24;98512.03;;;12.10;100.00
21817;BME280;13247;47.504;7.382;2023-02-18T01:58:09;98507.66;;;12.09;100.00
21817;BME280;13247;47.504;7.382;2023-02-18T02:00:54;98506.03;;;12.03;100.00
21817;BME280;13247;47.504;7.382;2023-02-18T02:03:39;98511.19;;;12.06;100.00
21817;BME280;13247;47.504;7.382;2023-02-18T02:06:24;98502.50;;;12.03;100.00
21817;BME280;13247;47.504;7.382;2023-02-18T02:09:12;98500.97;;;11.93;100.00
21817;BME280;13247;47.504;7.382;2023-02-18T02:12:12;98503.38;;;12.03;100.00
21817;BME280;13247;47.504;7.382;2023-02-18T02:27:12;98497.31;;;12.00;100.00
21817;BME280;13247;47.504;7.382;2023-02-18T02:33:58;98495.47;;;12.05;100.00
21817;BME280;13247;47.504;7.382;2023-02-18T02:40:23;98494.59;;;12.06;100.00
21817;BME280;13247;47.504;7.382;2023-02-18T02:43:26;98487.63;;;12.02;100.00
21817;BME280;13247;47.504;7.382;2023-02-18T02:46:30;98481.31;;;12.10;100.00
21817;BME280;13247;47.504;7.382;2023-02-18T02:52:18;98483.13;;;12.10;100.00
21817;BME280;13247;47.504;7.382;2023-02-18T02:55:09;98475.34;;;12.02;100.00
21817;BME280;13247;47.504;7.382;2023-02-18T02:57:55;98471.75;;;12.06;100.00
21817;BME280;13247;47.504;7.382;2023-02-18T03:01:05;98468.16;;;12.12;100.00
21817;BME280;13247;47.504;7.382;2023-02-18T03:07:34;98473.59;;;12.03;100.00
21817;BME280;13247;47.504;7.382;2023-02-18T03:10:44;98476.06;;;12.12;100.00
21817;BME280;13247;47.504;7.382;2023-02-18T03:14:26;98475.34;;;12.04;100.00
21817;BME280;13247;47.504;7.382;2023-02-18T03:17:10;98473.56;;;12.06;100.00
21817;BME280;13247;47.504;7.382;2023-02-18T03:20:25;98477.97;;;12.02;100.00
21817;BME280;13247;47.504;7.382;2023-02-18T03:23:10;98477.06;;;12.05;100.00
21817;BME280;13247;47.504;7.382;2023-02-18T03:26:00;98477.94;;;12.05;100.00
21817;BME280;13247;47.504;7.382;2023-02-18T03:28:48;98469.13;;;12.06;100.00
21817;BME280;13247;47.504;7.382;2023-02-18T03:31:35;98477.22;;;11.97;100.00
21817;BME280;13247;47.504;7.382;2023-02-18T03:34:29;98467.66;;;11.93;100.00
21817;BME280;13247;47.504;7.382;2023-02-18T03:37:15;98466.66;;;11.99;100.00
21817;BME280;13247;47.504;7.382;2023-02-18T03:40:01;98458.81;;;11.96;100.00
21817;BME280;13247;47.504;7.382;2023-02-18T03:42:46;98450.34;;;11.81;100.00
21817;BME280;13247;47.504;7.382;2023-02-18T03:45:31;98447.72;;;11.81;100.00
21817;BME280;13247;47.504;7.382;2023-02-18T03:48:16;98445.97;;;11.80;100.00
21817;BME280;13247;47.504;7.382;2023-02-18T03:51:00;98439.81;;;11.81;100.00
21817;BME280;13247;47.504;7.382;2023-02-18T03:53:45;98447.75;;;11.78;100.00
21817;BME280;13247;47.504;7.382;2023-02-18T03:56:30;98445.06;;;11.81;100.00
21817;BME280;13247;47.504;7.382;2023-02-18T03:59:15;98446.91;;;11.76;100.00
21817;BME280;13247;47.504;7.382;2023-02-18T04:01:59;98444.16;;;11.84;100.00
21817;BME280;13247;47.504;7.382;2023-02-18T04:04:44;98429.16;;;11.89;100.00
21817;BME280;13247;47.504;7.382;2023-02-18T04:07:28;98436.13;;;11.93;100.00
21817;BME280;13247;47.504;7.382;2023-02-18T04:10:13;98433.41;;;11.96;100.00
21817;BME280;13247;47.504;7.382;2023-02-18T04:12:57;98427.31;;;11.94;100.00
21817;BME280;13247;47.504;7.382;2023-02-18T04:15:43;98434.28;;;11.97;100.00
21817;BME280;13247;47.504;7.382;2023-02-18T04:18:27;98431.63;;;11.98;100.00
21817;BME280;13247;47.504;7.382;2023-02-18T04:21:12;98426.22;;;12.06;100.00
21817;BME280;13247;47.504;7.382;2023-02-18T04:23:56;98421.72;;;12.11;100.00
21817;BME280;13247;47.504;7.382;2023-02-18T04:26:41;98435.88;;;12.05;100.00
21817;BME280;13247;47.504;7.382;2023-02-18T04:29:25;98429.59;;;12.11;100.00
21817;BME280;13247;47.504;7.382;2023-02-18T04:32:10;98429.56;;;12.14;100.00
21817;BME280;13247;47.504;7.382;2023-02-18T04:34:54;98439.16;;;12.15;100.00
21817;BME280;13247;47.504;7.382;2023-02-18T04:37:39;98438.16;;;12.22;100.00
21817;BME280;13247;47.504;7.382;2023-02-18T04:40:24;98443.41;;;12.22;100.00
21817;BME280;13247;47.504;7.382;2023-02-18T04:43:10;98447.13;;;12.12;100.00
21817;BME280;13247;47.504;7.382;2023-02-18T04:45:55;98445.38;;;12.11;100.00
21817;BME280;13247;47.504;7.382;2023-02-18T04:48:39;98445.38;;;12.11;100.00
21817;BME280;13247;47.504;7.382;2023-02-18T04:51:24;98442.63;;;12.17;100.00
21817;BME280;13247;47.504;7.382;2023-02-18T04:54:09;98438.13;;;12.25;100.00
21817;BME280;13247;47.504;7.382;2023-02-18T04:56:53;98440.97;;;12.13;100.00
21817;BME280;13247;47.504;7.382;2023-02-18T04:59:38;98443.53;;;12.16;100.00
21817;BME280;13247;47.504;7.382;2023-02-18T05:02:23;98442.72;;;12.12;100.00
21817;BME280;13247;47.504;7.382;2023-02-18T05:05:08;98441.03;;;12.10;100.00
21817;BME280;13247;47.504;7.382;2023-02-18T05:07:52;98432.94;;;12.19;100.00
21817;BME280;13247;47.504;7.382;2023-02-18T05:10:37;98436.44;;;12.19;100.00
21817;BME280;13247;47.504;7.382;2023-02-18T05:13:22;98428.66;;;12.16;100.00
21817;BME280;13247;47.504;7.382;2023-02-18T05:16:07;98420.63;;;12.22;100.00
21817;BME280;13247;47.504;7.382;2023-02-18T05:18:51;98418.91;;;12.20;100.00
21817;BME280;13247;47.504;7.382;2023-02-18T05:21:36;98411.81;;;12.25;100.00
21817;BME280;13247;47.504;7.382;2023-02-18T05:24:20;98418.75;;;12.29;100.00
21817;BME280;13247;47.504;7.382;2023-02-18T05:27:05;98407.44;;;12.24;100.00
21817;BME280;13247;47.504;7.382;2023-02-18T05:29:50;98410.97;;;12.21;100.00
21817;BME280;13247;47.504;7.382;2023-02-18T05:32:34;98410.84;;;12.29;100.00
21817;BME280;13247;47.504;7.382;2023-02-18T05:35:19;98409.19;;;12.25;100.00
21817;BME280;13247;47.504;7.382;2023-02-18T05:38:04;98415.28;;;12.25;100.00
21817;BME280;13247;47.504;7.382;2023-02-18T05:40:48;98404.63;;;12.33;100.00
21817;BME280;13247;47.504;7.382;2023-02-18T05:43:33;98395.72;;;12.38;100.00
21817;BME280;13247;47.504;7.382;2023-02-18T05:46:40;98400.88;;;12.43;100.00
21817;BME280;13247;47.504;7.382;2023-02-18T05:49:25;98389.59;;;12.38;100.00
21817;BME280;13247;47.504;7.382;2023-02-18T05:52:10;98400.06;;;12.41;100.00
21817;BME280;13247;47.504;7.382;2023-02-18T05:54:56;98397.34;;;12.45;100.00
21817;BME280;13247;47.504;7.382;2023-02-18T05:57:40;98398.22;;;12.44;100.00
21817;BME280;13247;47.504;7.382;2023-02-18T06:00:25;98407.03;;;12.42;100.00
21817;BME280;13247;47.504;7.382;2023-02-18T06:03:10;98402.66;;;12.42;100.00
21817;BME280;13247;47.504;7.382;2023-02-18T06:05:54;98409.59;;;12.45;100.00
21817;BME280;13247;47.504;7.382;2023-02-18T06:08:39;98416.53;;;12.49;100.00
21817;BME280;13247;47.504;7.382;2023-02-18T06:11:24;98418.28;;;12.48;100.00
21817;BME280;13247;47.504;7.382;2023-02-18T06:14:08;98413.75;;;12.55;100.00
21817;BME280;13247;47.504;7.382;2023-02-18T06:16:53;98412.00;;;12.55;100.00
21817;BME280;13247;47.504;7.382;2023-02-18T06:19:38;98408.00;;;12.39;100.00
21817;BME280;13247;47.504;7.382;2023-02-18T06:22:22;98410.31;;;12.53;100.00
21817;BME280;13247;47.504;7.382;2023-02-18T06:25:07;98411.13;;;12.56;100.00
21817;BME280;13247;47.504;7.382;2023-02-18T06:27:52;98411.22;;;12.52;100.00
21817;BME280;13247;47.504;7.382;2023-02-18T06:30:36;98414.69;;;12.54;100.00
21817;BME280;13247;47.504;7.382;2023-02-18T06:33:21;98427.84;;;12.54;100.00
21817;BME280;13247;47.504;7.382;2023-02-18T06:36:07;98427.06;;;12.49;100.00
21817;BME280;13247;47.504;7.382;2023-02-18T06:38:51;98413.94;;;12.47;100.00
21817;BME280;13247;47.504;7.382;2023-02-18T06:41:38;98425.22;;;12.54;100.00
21817;BME280;13247;47.504;7.382;2023-02-18T06:44:24;98419.94;;;12.54;100.00
21817;BME280;13247;47.504;7.382;2023-02-18T06:47:08;98414.88;;;12.45;100.00
21817;BME280;13247;47.504;7.382;2023-02-18T06:49:53;98417.47;;;12.46;100.00
21817;BME280;13247;47.504;7.382;2023-02-18T06:52:37;98417.53;;;12.43;100.00
21817;BME280;13247;47.504;7.382;2023-02-18T06:55:22;98414.00;;;12.44;100.00
21817;BME280;13247;47.504;7.382;2023-02-18T06:58:08;98414.88;;;12.45;100.00
21817;BME280;13247;47.504;7.382;2023-02-18T07:00:53;98413.84;;;12.52;100.00
21817;BME280;13247;47.504;7.382;2023-02-18T07:03:37;98410.25;;;12.56;100.00
21817;BME280;13247;47.504;7.382;2023-02-18T07:06:22;98412.25;;;12.45;100.00
21817;BME280;13247;47.504;7.382;2023-02-18T07:09:06;98406.56;;;12.63;100.00
21817;BME280;13247;47.504;7.382;2023-02-18T07:11:51;98413.75;;;12.55;100.00
21817;BME280;13247;47.504;7.382;2023-02-18T07:14:35;98413.75;;;12.55;100.00
21817;BME280;13247;47.504;7.382;2023-02-18T07:17:20;98409.66;;;12.43;100.00
21817;BME280;13247;47.504;7.382;2023-02-18T07:20:06;98414.53;;;12.60;100.00
21817;BME280;13247;47.504;7.382;2023-02-18T07:22:51;98415.38;;;12.62;100.00
21817;BME280;13247;47.504;7.382;2023-02-18T07:25:36;98415.34;;;12.63;100.00
21817;BME280;13247;47.504;7.382;2023-02-18T07:28:21;98410.94;;;12.64;100.00
21817;BME280;13247;47.504;7.382;2023-02-18T07:31:06;98424.03;;;12.67;100.00
21817;BME280;13247;47.504;7.382;2023-02-18T07:33:51;98420.56;;;12.65;100.00
21817;BME280;13247;47.504;7.382;2023-02-18T07:36:36;98419.81;;;12.60;100.00
21817;BME280;13247;47.504;7.382;2023-02-18T07:39:21;98418.66;;;12.72;100.00
21817;BME280;13247;47.504;7.382;2023-02-18T07:42:06;98416.91;;;12.72;100.00
21817;BME280;13247;47.504;7.382;2023-02-18T07:44:51;98412.59;;;12.68;100.00
21817;BME280;13247;47.504;7.382;2023-02-18T07:47:36;98416.84;;;12.75;100.00
21817;BME280;13247;47.504;7.382;2023-02-18T07:50:20;98416.84;;;12.74;100.00
21817;BME280;13247;47.504;7.382;2023-02-18T07:53:05;98420.34;;;12.74;100.00
21817;BME280;13247;47.504;7.382;2023-02-18T07:55:49;98418.53;;;12.78;100.00
21817;BME280;13247;47.504;7.382;2023-02-18T07:58:36;98417.66;;;12.77;100.00
21817;BME280;13247;47.504;7.382;2023-02-18T08:01:21;98416.75;;;12.80;100.00
21817;BME280;13247;47.504;7.382;2023-02-18T08:04:06;98422.94;;;12.77;100.00
21817;BME280;13247;47.504;7.382;2023-02-18T08:06:51;98418.56;;;12.76;100.00
21817;BME280;13247;47.504;7.382;2023-02-18T08:09:36;98425.38;;;12.85;100.00
21817;BME280;13247;47.504;7.382;2023-02-18T08:12:20;98424.41;;;12.89;100.00
21817;BME280;13247;47.504;7.382;2023-02-18T08:15:05;98419.88;;;12.95;100.00
21817;BME280;13247;47.504;7.382;2023-02-18T08:17:50;98430.59;;;12.86;100.00
21817;BME280;13247;47.504;7.382;2023-02-18T08:20:36;98423.47;;;12.91;100.00
21817;BME280;13247;47.504;7.382;2023-02-18T08:23:22;98425.03;;;13.00;100.00
21817;BME280;13247;47.504;7.382;2023-02-18T08:26:06;98427.72;;;12.97;100.00
21817;BME280;13247;47.504;7.382;2023-02-18T08:28:51;98424.06;;;13.04;100.00
21817;BME280;13247;47.504;7.382;2023-02-18T08:31:37;98420.53;;;13.03;100.00
21817;BME280;13247;47.504;7.382;2023-02-18T08:34:21;98429.25;;;13.08;100.00
21817;BME280;13247;47.504;7.382;2023-02-18T08:37:06;98430.03;;;13.13;100.00
21817;BME280;13247;47.504;7.382;2023-02-18T08:39:51;98426.63;;;13.08;100.00
21817;BME280;13247;47.504;7.382;2023-02-18T08:42:35;98429.25;;;13.08;100.00
21817;BME280;13247;47.504;7.382;2023-02-18T08:45:20;98428.31;;;13.09;100.00
21817;BME280;13247;47.504;7.382;2023-02-18T08:48:06;98423.78;;;13.17;100.00
21817;BME280;13247;47.504;7.382;2023-02-18T08:50:51;98423.63;;;13.23;100.00
21817;BME280;13247;47.504;7.382;2023-02-18T08:53:36;98420.97;;;13.23;100.00
21817;BME280;13247;47.504;7.382;2023-02-18T08:56:21;98419.28;;;13.21;100.00
21817;BME280;13247;47.504;7.382;2023-02-18T08:59:05;98428.88;;;13.23;100.00
21817;BME280;13247;47.504;7.382;2023-02-18T09:01:50;98428.94;;;13.20;100.00
21817;BME280;13247;47.504;7.382;2023-02-18T09:04:34;98429.78;;;13.22;100.00
21817;BME280;13247;47.504;7.382;2023-02-18T09:07:19;98430.59;;;13.24;100.00
21817;BME280;13247;47.504;7.382;2023-02-18T09:10:04;98421.16;;;13.16;100.00
21817;BME280;13247;47.504;7.382;2023-02-18T09:12:49;98421.03;;;13.22;100.00
21817;BME280;13247;47.504;7.382;2023-02-18T09:15:33;98422.25;;;13.43;100.00
21817;BME280;13247;47.504;7.382;2023-02-18T09:18:18;98419.91;;;13.30;100.00
21817;BME280;13247;47.504;7.382;2023-02-18T09:21:05;98417.88;;;13.42;100.00
21817;BME280;13247;47.504;7.382;2023-02-18T09:23:50;98425.06;;;13.35;100.00
21817;BME280;13247;47.504;7.382;2023-02-18T09:26:35;98416.88;;;13.46;100.00
21817;BME280;13247;47.504;7.382;2023-02-18T09:29:19;98414.19;;;13.49;100.00
21817;BME280;13247;47.504;7.382;2023-02-18T09:32:05;98422.03;;;13.50;100.00
21817;BME280;13247;47.504;7.382;2023-02-18T09:34:50;98419.38;;;13.52;100.00
21817;BME280;13247;47.504;7.382;2023-02-18T09:37:35;98419.56;;;13.44;100.00
21817;BME280;13247;47.504;7.382;2023-02-18T09:40:29;98411.31;;;13.58;100.00
21817;BME280;13247;47.504;7.382;2023-02-18T09:43:39;98414.50;;;13.70;100.00
21817;BME280;13247;47.504;7.382;2023-02-18T09:49:20;98424.56;;;13.55;100.00
21817;BME280;13247;47.504;7.382;2023-02-18T09:52:22;98426.97;;;13.64;100.00
21817;BME280;13247;47.504;7.382;2023-02-18T09:55:18;98426.00;;;13.68;100.00
21817;BME280;13247;47.504;7.382;2023-02-18T09:58:16;98424.19;;;13.70;100.00
21817;BME280;13247;47.504;7.382;2023-02-18T10:01:14;98426.44;;;13.50;100.00
21817;BME280;13247;47.504;7.382;2023-02-18T10:04:10;98426.53;;;13.47;100.00
21817;BME280;13247;47.504;7.382;2023-02-18T10:06:57;98427.22;;;13.55;100.00
21817;BME280;13247;47.504;7.382;2023-02-18T10:09:42;98428.16;;;13.52;100.00
21817;BME280;13247;47.504;7.382;2023-02-18T10:12:29;98429.84;;;13.55;100.00
21817;BME280;13247;47.504;7.382;2023-02-18T10:15:23;98434.00;;;13.63;100.00
21817;BME280;13247;47.504;7.382;2023-02-18T10:18:34;98437.41;;;13.67;100.00
21817;BME280;13247;47.504;7.382;2023-02-18T10:21:28;98434.63;;;13.73;100.00
21817;BME280;13247;47.504;7.382;2023-02-18T10:24:31;98430.66;;;13.57;100.00
21817;BME280;13247;47.504;7.382;2023-02-18T10:27:37;98427.09;;;13.59;100.00
21817;BME280;13247;47.504;7.382;2023-02-18T10:30:31;98432.25;;;13.62;100.00
21817;BME280;13247;47.504;7.382;2023-02-18T10:33:30;98417.31;;;13.63;100.00
21817;BME280;13247;47.504;7.382;2023-02-18T10:45:20;98422.91;;;13.84;100.00
21817;BME280;13247;47.504;7.382;2023-02-18T10:51:21;98420.75;;;13.98;100.00
21817;BME280;13247;47.504;7.382;2023-02-18T10:54:07;98411.59;;;13.81;100.00
21817;BME280;13247;47.504;7.382;2023-02-18T10:56:57;98412.81;;;14.00;100.00
21817;BME280;13247;47.504;7.382;2023-02-18T10:59:55;98404.97;;;14.28;100.00
21817;BME280;13247;47.504;7.382;2023-02-18T11:02:40;98402.72;;;14.14;100.00
21817;BME280;13247;47.504;7.382;2023-02-18T11:05:27;98406.00;;;14.22;100.00
21817;BME280;13247;47.504;7.382;2023-02-18T11:08:24;98394.94;;;14.09;100.00
21817;BME280;13247;47.504;7.382;2023-02-18T11:11:15;98404.19;;;14.24;100.00
21817;BME280;13247;47.504;7.382;2023-02-18T11:14:02;98389.63;;;14.11;100.00
21817;BME280;13247;47.504;7.382;2023-02-18T11:16:48;98388.59;;;14.16;100.00
21817;BME280;13247;47.504;7.382;2023-02-18T11:19:39;98384.44;;;14.08;100.00
21817;BME280;13247;47.504;7.382;2023-02-18T11:22:29;98389.72;;;14.39;100.00
21817;BME280;13247;47.504;7.382;2023-02-18T11:25:23;98378.28;;;14.38;100.00
21817;BME280;13247;47.504;7.382;2023-02-18T11:31:03;98359.84;;;14.07;100.00
21817;BME280;13247;47.504;7.382;2023-02-18T11:33:57;98353.28;;;14.21;100.00
21817;BME280;13247;47.504;7.382;2023-02-18T11:36:43;98347.41;;;14.42;100.00
21817;BME280;13247;47.504;7.382;2023-02-18T11:39:28;98348.91;;;14.50;100.00
21817;BME280;13247;47.504;7.382;2023-02-18T11:42:15;98341.34;;;14.38;100.00
21817;BME280;13247;47.504;7.382;2023-02-18T11:45:00;98337.72;;;14.42;100.00
21817;BME280;13247;47.504;7.382;2023-02-18T11:48:02;98332.84;;;14.29;100.00
21817;BME280;13247;47.504;7.382;2023-02-18T11:50:51;98332.53;;;14.39;100.00
21817;BME280;13247;47.504;7.382;2023-02-18T11:53:37;98326.34;;;14.40;100.00
21817;BME280;13247;47.504;7.382;2023-02-18T11:56:21;98318.25;;;14.74;100.00
21817;BME280;13247;47.504;7.382;2023-02-18T11:59:08;98316.56;;;14.71;100.00
21817;BME280;13247;47.504;7.382;2023-02-18T12:02:44;98329.16;;;14.63;100.00
21817;BME280;13247;47.504;7.382;2023-02-18T12:05:23;98320.34;;;14.63;100.00
21817;BME280;13247;47.504;7.382;2023-02-18T12:08:24;98322.19;;;14.59;100.00
21817;BME280;13247;47.504;7.382;2023-02-18T12:11:16;98313.31;;;14.63;100.00
21817;BME280;13247;47.504;7.382;2023-02-18T12:14:13;98318.31;;;14.71;100.00
21817;BME280;13247;47.504;7.382;2023-02-18T12:41:54;98311.09;;;15.04;100.00
21817;BME280;13247;47.504;7.382;2023-02-18T12:44:55;98302.31;;;15.02;100.00
21817;BME280;13247;47.504;7.382;2023-02-18T13:00:43;98275.22;;;14.97;100.00
21817;BME280;13247;47.504;7.382;2023-02-18T13:06:40;98266.88;;;15.09;100.00
21817;BME280;13247;47.504;7.382;2023-02-18T13:16:12;98260.06;;;15.02;98.28
21817;BME280;13247;47.504;7.382;2023-02-18T13:22:03;98255.94;;;15.19;98.45
21817;BME280;13247;47.504;7.382;2023-02-18T13:24:50;98252.03;;;15.05;99.26
21817;BME280;13247;47.504;7.382;2023-02-18T13:27:42;98236.38;;;15.25;99.02
21817;BME280;13247;47.504;7.382;2023-02-18T13:30:50;98231.50;;;15.37;96.91
21817;BME280;13247;47.504;7.382;2023-02-18T13:34:47;98226.91;;;15.42;99.46
21817;BME280;13247;47.504;7.382;2023-02-18T13:39:55;98228.75;;;15.40;96.62
21817;BME280;13247;47.504;7.382;2023-02-18T13:42:41;98221.19;;;15.54;96.01
21817;BME280;13247;47.504;7.382;2023-02-18T13:45:31;98216.56;;;15.36;95.41
21817;BME280;13247;47.504;7.382;2023-02-18T13:48:25;98206.50;;;15.47;96.53
21817;BME280;13247;47.504;7.382;2023-02-18T13:51:14;98213.78;;;15.64;95.84
21817;BME280;13247;47.504;7.382;2023-02-18T13:57:05;98195.28;;;15.64;92.55
21817;BME280;13247;47.504;7.382;2023-02-18T13:59:56;98199.19;;;15.54;92.57
21817;BME280;13247;47.504;7.382;2023-02-18T14:03:00;98195.13;;;15.68;92.42
21817;BME280;13247;47.504;7.382;2023-02-18T14:05:45;98193.31;;;15.92;90.92
21817;BME280;13247;47.504;7.382;2023-02-18T14:08:36;98186.88;;;15.76;90.26
21817;BME280;13247;47.504;7.382;2023-02-18T14:11:33;98196.72;;;15.73;88.17
21817;BME280;13247;47.504;7.382;2023-02-18T14:14:32;98185.94;;;16.00;90.64
21817;BME280;13247;47.504;7.382;2023-02-18T14:22:52;98189.31;;;16.04;85.87
21817;BME280;13247;47.504;7.382;2023-02-18T14:25:39;98179.00;;;16.19;82.46
21817;BME280;13247;47.504;7.382;2023-02-18T14:43:25;98171.41;;;15.65;86.29
21817;BME280;13247;47.504;7.382;2023-02-18T14:52:46;98159.13;;;15.41;90.54
21817;BME280;13247;47.504;7.382;2023-02-18T14:55:36;98164.69;;;15.57;88.21
21817;BME280;13247;47.504;7.382;2023-02-18T14:58:56;98164.19;;;15.23;92.18
21817;BME280;13247;47.504;7.382;2023-02-18T15:01:41;98160.63;;;15.24;93.54
21817;BME280;13247;47.504;7.382;2023-02-18T15:04:26;98171.31;;;15.21;93.39
21817;BME280;13247;47.504;7.382;2023-02-18T15:07:11;98161.69;;;15.20;93.31
21817;BME280;13247;47.504;7.382;2023-02-18T15:09:56;98155.91;;;15.09;92.94
21817;BME280;13247;47.504;7.382;2023-02-18T15:12:42;98157.22;;;14.97;91.04
21817;BME280;13247;47.504;7.382;2023-02-18T15:15:26;98159.59;;;15.05;93.75
21817;BME280;13247;47.504;7.382;2023-02-18T15:18:26;98165.56;;;15.10;93.29
21817;BME280;13247;47.504;7.382;2023-02-18T15:21:24;98152.09;;;14.92;95.79
21817;BME280;13247;47.504;7.382;2023-02-18T15:24:31;98153.66;;;14.98;98.44
21817;BME280;13247;47.504;7.382;2023-02-18T15:27:20;98149.63;;;14.88;99.25
21817;BME280;13247;47.504;7.382;2023-02-18T15:30:16;98151.22;;;14.92;99.17
21817;BME280;13247;47.504;7.382;2023-02-18T15:33:02;98153.34;;;14.82;100.00
21817;BME280;13247;47.504;7.382;2023-02-18T15:36:05;98153.88;;;14.67;100.00
21817;BME280;13247;47.504;7.382;2023-02-18T15:38:50;98144.00;;;14.72;99.43
21817;BME280;13247;47.504;7.382;2023-02-18T15:41:35;98145.03;;;14.68;100.00
21817;BME280;13247;47.504;7.382;2023-02-18T15:44:26;98147.34;;;14.77;99.35
21817;BME280;13247;47.504;7.382;2023-02-18T15:47:11;98152.44;;;14.57;100.00
21817;BME280;13247;47.504;7.382;2023-02-18T15:49:59;98144.22;;;14.66;100.00
21817;BME280;13247;47.504;7.382;2023-02-18T15:52:45;98144.38;;;14.62;100.00
21817;BME280;13247;47.504;7.382;2023-02-18T15:55:37;98145.25;;;14.62;100.00
21817;BME280;13247;47.504;7.382;2023-02-18T15:58:30;98145.31;;;14.61;100.00
21817;BME280;13247;47.504;7.382;2023-02-18T16:01:26;98142.91;;;14.53;100.00
21817;BME280;13247;47.504;7.382;2023-02-18T16:04:13;98141.28;;;14.49;100.00
21817;BME280;13247;47.504;7.382;2023-02-18T16:10:24;98136.22;;;14.43;100.00
21817;BME280;13247;47.504;7.382;2023-02-18T16:13:21;98141.72;;;14.37;100.00
21817;BME280;13247;47.504;7.382;2023-02-18T16:16:06;98144.16;;;14.43;100.00
21817;BME280;13247;47.504;7.382;2023-02-18T16:19:03;98144.19;;;14.42;99.30
21817;BME280;13247;47.504;7.382;2023-02-18T16:21:48;98141.00;;;14.32;100.00
21817;BME280;13247;47.504;7.382;2023-02-18T16:24:39;98139.81;;;14.41;99.95
21817;BME280;13247;47.504;7.382;2023-02-18T16:27:31;98139.88;;;14.39;100.00
21817;BME280;13247;47.504;7.382;2023-02-18T16:30:25;98140.34;;;14.24;100.00
21817;BME280;13247;47.504;7.382;2023-02-18T16:33:11;98134.38;;;14.19;100.00
21817;BME280;13247;47.504;7.382;2023-02-18T16:35:56;98142.69;;;14.07;100.00
21817;BME280;13247;47.504;7.382;2023-02-18T16:38:45;98144.13;;;14.17;100.00
21817;BME280;13247;47.504;7.382;2023-02-18T16:41:29;98139.34;;;14.02;100.00
21817;BME280;13247;47.504;7.382;2023-02-18T16:44:14;98138.13;;;14.12;100.00
21817;BME280;13247;47.504;7.382;2023-02-18T16:46:59;98142.19;;;13.96;100.00
21817;BME280;13247;47.504;7.382;2023-02-18T16:49:46;98143.06;;;13.95;100.00
21817;BME280;13247;47.504;7.382;2023-02-18T16:52:31;98147.53;;;13.93;100.00